createdAt,value
2019-06-07T04:20:04.465Z,0.19
2019-06-07T07:35:01.077Z,1.27
2019-06-07T07:45:01.384Z,1.18
2019-06-07T07:55:01.181Z,1.04
2019-06-07T08:10:04.024Z,0.42
2019-06-07T08:50:07.477Z,1.36
2019-06-07T09:10:09.346Z,1.84
2019-06-07T09:15:14.835Z,1.94
2019-06-07T09:20:10.405Z,1.35
2019-06-07T09:25:09.435Z,2.12
2019-06-07T09:30:07.616Z,1.61
2019-06-07T09:35:05.397Z,1.70
2019-06-07T09:40:15.355Z,1.61
2019-06-07T09:45:04.335Z,1.89
2019-06-07T09:50:05.958Z,2.09
2019-06-07T09:55:09.330Z,1.25
2019-06-07T10:00:10.418Z,1.96
2019-06-07T10:05:02.515Z,2.34
2019-06-07T10:15:01.100Z,2.24
2019-06-07T10:20:02.601Z,1.88
2019-06-07T10:25:02.117Z,2.73
2019-06-07T10:30:02.322Z,1.30
2019-06-07T10:35:03.065Z,1.99
2019-06-07T10:40:01.210Z,2.11
2019-06-07T10:45:02.590Z,1.97
2019-06-07T10:50:01.930Z,2.67
2019-06-07T10:55:02.442Z,2.72
2019-06-07T11:00:01.177Z,2.63
2019-06-07T11:05:01.205Z,4.02
2019-06-07T11:10:07.281Z,2.52
2019-06-07T11:15:01.181Z,2.48
2019-06-07T11:20:01.197Z,3.47
2019-06-07T11:25:01.186Z,4.20
2019-06-07T11:30:01.159Z,2.31
2019-06-07T11:35:02.445Z,2.40
2019-06-07T11:40:01.142Z,3.29
2019-06-07T11:45:01.756Z,3.69
2019-06-07T11:50:01.844Z,2.59
2019-06-07T11:55:01.132Z,3.22
2019-06-07T12:00:01.336Z,3.57
2019-06-07T12:05:01.131Z,3.67
2019-06-07T12:10:01.156Z,3.50
2019-06-07T12:15:01.147Z,1.85
2019-06-07T12:20:01.197Z,4.53
2019-06-07T12:25:01.195Z,4.11
2019-06-07T12:30:09.236Z,2.34
2019-06-07T12:35:01.354Z,3.01
2019-06-07T12:40:01.212Z,3.00
2019-06-07T12:45:01.344Z,1.94
2019-06-07T12:50:01.208Z,1.66
2019-06-07T12:55:01.293Z,3.54
2019-06-07T13:00:01.193Z,2.42
2019-06-07T13:05:04.701Z,2.28
2019-06-07T13:10:01.180Z,3.65
2019-06-07T13:15:01.257Z,2.24
2019-06-07T13:20:01.152Z,1.81
2019-06-07T13:25:01.287Z,1.77
2019-06-07T13:30:09.142Z,2.51
2019-06-07T13:35:01.175Z,2.45
2019-06-07T13:40:01.349Z,3.62
2019-06-07T13:45:01.118Z,2.88
2019-06-07T13:50:01.251Z,2.33
2019-06-07T13:55:02.527Z,1.81
2019-06-07T14:00:09.855Z,1.96
2019-06-07T14:05:01.210Z,1.00
2019-06-07T14:10:01.118Z,0.97
2019-06-07T14:15:01.183Z,2.39
2019-06-07T14:20:01.140Z,1.04
2019-06-07T14:25:01.177Z,1.71
2019-06-07T14:30:02.285Z,1.42
2019-06-07T14:35:01.132Z,0.75
2019-06-07T14:40:01.144Z,1.37
2019-06-07T14:45:05.936Z,1.83
2019-06-07T14:50:01.258Z,2.16
2019-06-07T14:55:01.206Z,1.98
2019-06-07T15:00:10.437Z,1.57
2019-06-07T15:05:01.131Z,2.93
2019-06-07T15:10:01.108Z,1.82
2019-06-07T15:15:01.183Z,2.23
2019-06-07T15:20:01.209Z,1.13
2019-06-07T15:25:01.210Z,0.99
2019-06-07T15:30:09.469Z,2.07
2019-06-07T15:35:01.145Z,1.41
2019-06-07T15:40:01.325Z,2.71
2019-06-07T15:45:01.172Z,3.09
2019-06-07T15:50:01.158Z,4.59
2019-06-07T15:55:01.164Z,3.71
2019-06-07T16:00:01.236Z,3.60
2019-06-07T16:05:01.151Z,3.42
2019-06-07T16:10:01.188Z,5.26
2019-06-07T16:15:01.117Z,3.40
2019-06-07T16:20:01.174Z,2.85
2019-06-07T16:25:01.151Z,4.20
2019-06-07T16:30:08.747Z,3.76
2019-06-07T16:35:01.200Z,3.77
2019-06-07T16:40:01.234Z,3.90
2019-06-07T16:45:01.238Z,3.14
2019-06-07T16:50:01.465Z,3.07
2019-06-07T16:55:01.199Z,4.26
2019-06-07T17:00:01.279Z,3.37
2019-06-07T17:05:01.340Z,3.36
2019-06-07T17:10:01.234Z,2.39
2019-06-07T17:15:01.205Z,2.33
2019-06-07T17:20:01.443Z,2.65
2019-06-07T17:25:01.143Z,2.58
2019-06-07T17:30:01.147Z,1.67
2019-06-07T17:35:01.161Z,1.75
2019-06-07T17:40:01.226Z,3.04
2019-06-07T17:45:01.115Z,2.30
2019-06-07T17:50:01.304Z,2.07
2019-06-07T17:55:01.167Z,2.33
2019-06-07T18:00:27.210Z,1.17
2019-06-07T18:05:01.173Z,0.98
2019-06-07T18:10:01.126Z,1.21
2019-06-07T18:15:01.124Z,1.19
2019-06-07T18:20:01.457Z,2.00
2019-06-07T18:25:02.357Z,1.64
2019-06-07T18:30:10.842Z,1.68
2019-06-07T18:35:01.128Z,1.73
2019-06-07T18:40:01.298Z,1.87
2019-06-07T18:45:01.138Z,1.65
2019-06-07T18:50:01.638Z,1.51
2019-06-07T18:55:01.353Z,1.95
2019-06-07T19:00:01.227Z,1.64
2019-06-07T19:05:01.253Z,1.95
2019-06-07T19:10:01.185Z,1.93
2019-06-07T19:15:01.565Z,2.12
2019-06-07T19:20:01.763Z,1.89
2019-06-07T19:25:01.323Z,1.29
2019-06-07T19:30:01.315Z,1.28
2019-06-07T19:35:01.670Z,1.17
2019-06-07T19:40:02.813Z,1.00
2019-06-07T19:45:28.527Z,1.35
2019-06-07T19:50:03.166Z,0.96
2019-06-07T19:55:05.801Z,1.27
2019-06-07T20:00:04.101Z,1.08
2019-06-07T20:05:04.804Z,1.10
2019-06-07T20:10:02.809Z,1.23
2019-06-07T20:15:24.732Z,1.67
2019-06-07T20:20:02.668Z,1.51
2019-06-07T20:25:01.277Z,1.69
2019-06-07T20:30:02.445Z,1.63
2019-06-07T20:35:01.743Z,1.07
2019-06-07T20:40:16.606Z,1.03
2019-06-07T20:45:02.184Z,0.99
2019-06-07T20:50:02.403Z,1.06
2019-06-07T20:55:02.703Z,1.20
2019-06-07T21:00:10.572Z,1.12
2019-06-07T21:05:03.302Z,1.49
2019-06-07T21:10:01.789Z,0.96
2019-06-07T21:15:07.141Z,1.18
2019-06-07T21:20:03.000Z,1.26
2019-06-07T21:45:05.896Z,1.07
2019-06-07T21:50:02.592Z,1.09
2019-06-07T22:05:03.458Z,1.19
2019-06-07T22:10:01.650Z,0.61
2019-06-07T22:15:01.361Z,0.51
2019-06-07T22:20:01.876Z,1.15
2019-06-07T22:25:01.205Z,1.28
2019-06-07T22:30:01.260Z,0.91
2019-06-07T22:35:01.465Z,1.38
2019-06-07T22:40:01.308Z,1.26
2019-06-07T22:45:01.528Z,0.86
2019-06-07T22:50:01.334Z,0.80
2019-06-07T22:55:01.270Z,0.90
2019-06-07T23:00:08.552Z,0.81
2019-06-07T23:05:04.702Z,0.80
2019-06-07T23:10:01.187Z,0.94
2019-06-07T23:15:01.416Z,0.89
2019-06-07T23:20:01.728Z,0.81
2019-06-07T23:25:01.381Z,0.94
2019-06-07T23:30:08.117Z,1.26
2019-06-07T23:35:01.507Z,0.61
2019-06-07T23:40:03.139Z,0.73
2019-06-07T23:45:02.151Z,0.88
2019-06-07T23:50:01.245Z,0.78
2019-06-07T23:55:01.290Z,0.62
